createdAt,value
2023-03-15T00:00:18.029Z,245.80
2023-03-15T00:04:17.769Z,244.15
2023-03-15T00:08:17.769Z,244.46
2023-03-15T00:12:17.735Z,245.42
2023-03-15T00:16:18.058Z,244.75
2023-03-15T00:20:17.986Z,240.92
2023-03-15T00:24:17.612Z,243.19
2023-03-15T00:28:17.577Z,243.64
2023-03-15T00:32:18.002Z,245.99
2023-03-15T00:36:17.518Z,248.91
2023-03-15T00:40:17.533Z,247.57
2023-03-15T00:44:17.465Z,246.29
2023-03-15T00:48:17.375Z,248.06
2023-03-15T00:52:17.461Z,248.17
2023-03-15T00:56:18.050Z,246.27
2023-03-15T01:00:17.638Z,246.95
2023-03-15T01:04:18.025Z,244.18
2023-03-15T01:08:17.768Z,247.50
2023-03-15T01:12:18.016Z,246.03
2023-03-15T01:16:18.057Z,244.52
2023-03-15T01:20:17.953Z,243.84
2023-03-15T01:24:18.030Z,248.58
2023-03-15T01:28:18.050Z,245.73
2023-03-15T01:32:18.532Z,245.29
2023-03-15T01:36:18.185Z,244.91
2023-03-15T01:40:18.200Z,247.53
2023-03-15T01:44:18.262Z,244.72
2023-03-15T01:48:18.543Z,246.29
2023-03-15T01:52:18.532Z,247.06
2023-03-15T01:56:18.528Z,248.46
2023-03-15T02:00:18.519Z,243.99
2023-03-15T02:04:18.616Z,242.71
2023-03-15T02:10:01.280Z,25.00
2023-03-15T02:14:01.865Z,25.36
2023-03-15T02:18:01.869Z,28.99
2023-03-15T02:22:01.866Z,28.11
2023-03-15T02:26:02.365Z,34.42
2023-03-15T02:30:02.209Z,32.21
2023-03-15T02:34:02.886Z,33.09
2023-03-15T02:38:02.879Z,33.56
2023-03-15T02:42:02.863Z,37.18
2023-03-15T02:46:02.988Z,36.25
2023-03-15T02:50:03.223Z,35.34
2023-03-15T02:54:03.409Z,36.36
2023-03-15T02:58:03.360Z,37.24
2023-03-15T03:02:03.442Z,36.42
2023-03-15T03:06:03.076Z,38.22
2023-03-15T03:10:03.376Z,40.76
2023-03-15T03:14:02.984Z,38.61
2023-03-15T03:18:03.416Z,41.50
2023-03-15T03:22:03.390Z,37.04
2023-03-15T03:26:02.906Z,38.49
2023-03-15T03:30:02.862Z,45.65
2023-03-15T03:34:03.378Z,42.52
2023-03-15T03:38:03.386Z,47.32
2023-03-15T03:42:03.305Z,47.97
2023-03-15T03:46:03.957Z,44.91
2023-03-15T03:50:03.710Z,42.08
2023-03-15T03:54:04.394Z,46.98
2023-03-15T03:58:04.418Z,45.37
2023-03-15T04:02:04.336Z,47.16
2023-03-15T04:06:04.395Z,45.54
2023-03-15T04:10:04.257Z,48.51
2023-03-15T04:14:04.388Z,53.39
2023-03-15T04:18:04.424Z,52.87
2023-03-15T04:22:04.176Z,53.82
2023-03-15T04:26:04.415Z,54.04
2023-03-15T04:30:04.100Z,52.37
2023-03-15T04:34:04.448Z,51.34
2023-03-15T04:38:04.395Z,51.23
2023-03-15T04:42:03.983Z,54.94
2023-03-15T04:46:03.947Z,55.16
2023-03-15T04:50:04.413Z,53.16
2023-03-15T04:54:04.423Z,57.85
2023-03-15T04:58:04.936Z,55.12
2023-03-15T05:02:04.752Z,60.61
2023-03-15T05:06:04.903Z,58.55
2023-03-15T05:10:05.084Z,57.98
2023-03-15T05:14:05.416Z,60.08
2023-03-15T05:18:05.224Z,59.86
2023-03-15T05:22:05.414Z,59.65
2023-03-15T05:26:05.166Z,60.01
2023-03-15T05:30:05.449Z,62.49
2023-03-15T05:34:05.103Z,60.10
2023-03-15T05:38:05.060Z,64.21
2023-03-15T05:42:05.505Z,62.36
2023-03-15T05:46:05.511Z,64.26
2023-03-15T05:50:05.938Z,67.41
2023-03-15T05:54:04.961Z,65.07
2023-03-15T05:58:04.923Z,66.34
2023-03-15T06:02:05.425Z,65.46
2023-03-15T06:06:05.271Z,67.31
2023-03-15T06:10:06.014Z,68.04
2023-03-15T06:14:06.003Z,63.72
2023-03-15T06:18:05.843Z,58.86
2023-03-15T06:22:05.916Z,63.13
2023-03-15T06:26:05.789Z,44.43
2023-03-15T06:30:05.950Z,41.99
2023-03-15T06:34:05.745Z,45.39
2023-03-15T06:38:05.973Z,54.34
2023-03-15T06:42:05.924Z,50.49
2023-03-15T06:46:06.122Z,66.44
2023-03-15T06:50:05.974Z,62.96
2023-03-15T06:54:05.517Z,67.16
2023-03-15T06:58:05.951Z,87.94
2023-03-15T07:02:05.974Z,85.05
2023-03-15T07:06:05.417Z,94.62
2023-03-15T07:10:05.406Z,93.71
2023-03-15T07:14:05.364Z,94.05
2023-03-15T07:18:05.330Z,94.55
2023-03-15T07:22:05.303Z,96.36
2023-03-15T07:26:05.285Z,91.80
2023-03-15T07:30:05.260Z,92.26
2023-03-15T07:34:05.247Z,94.07
2023-03-15T07:38:05.312Z,89.02
2023-03-15T07:42:05.395Z,88.31
2023-03-15T07:46:05.519Z,79.94
2023-03-15T07:50:05.646Z,86.08
2023-03-15T07:54:05.828Z,86.62
2023-03-15T07:58:05.971Z,95.91
2023-03-15T08:02:06.205Z,104.61
2023-03-15T08:06:06.191Z,125.38
2023-03-15T08:10:06.285Z,139.67
2023-03-15T08:14:06.503Z,147.08
2023-03-15T08:18:06.704Z,142.91
2023-03-15T08:22:06.850Z,130.85
2023-03-15T08:26:06.991Z,135.25
2023-03-15T08:30:07.204Z,140.86
2023-03-15T08:34:07.328Z,140.69
2023-03-15T08:38:07.428Z,145.44
2023-03-15T08:42:07.559Z,147.07
2023-03-15T08:46:07.629Z,150.49
2023-03-15T08:50:07.744Z,138.84
2023-03-15T08:54:07.860Z,122.14
2023-03-15T08:58:08.050Z,171.64
2023-03-15T09:02:08.222Z,194.22
2023-03-15T09:06:08.254Z,214.33
2023-03-15T09:10:08.380Z,233.55
2023-03-15T09:14:08.582Z,240.96
2023-03-15T09:18:08.718Z,248.55
2023-03-15T09:22:16.657Z,246.76
2023-03-15T09:26:09.800Z,247.56
2023-03-15T09:30:08.771Z,247.55
2023-03-15T09:34:08.738Z,248.55
2023-03-15T09:38:08.702Z,247.44
2023-03-15T09:42:08.695Z,233.44
2023-03-15T09:46:08.647Z,246.40
2023-03-15T09:50:08.674Z,256.65
2023-03-15T09:54:08.801Z,248.96
2023-03-15T09:58:08.952Z,194.89
2023-03-15T10:02:09.097Z,238.73
2023-03-15T10:06:09.288Z,243.51
2023-03-15T10:10:09.408Z,233.03
2023-03-15T10:14:09.547Z,232.26
2023-03-15T10:18:09.547Z,237.59
2023-03-15T10:22:09.683Z,235.80
2023-03-15T10:26:09.900Z,236.95
2023-03-15T10:30:10.085Z,241.75
2023-03-15T10:34:10.210Z,239.92
2023-03-15T10:38:10.401Z,239.95
2023-03-15T10:42:10.519Z,240.39
2023-03-15T10:46:10.713Z,240.38
2023-03-15T10:50:10.736Z,159.47
2023-03-15T10:54:10.797Z,232.86
2023-03-15T10:58:10.859Z,230.82
2023-03-15T11:02:11.009Z,234.17
2023-03-15T11:06:10.926Z,227.74
2023-03-15T11:10:10.968Z,220.02
2023-03-15T11:14:11.041Z,214.21
2023-03-15T11:18:11.072Z,211.25
2023-03-15T11:22:11.115Z,208.06
2023-03-15T11:26:14.085Z,203.23
2023-03-15T11:30:12.139Z,203.19
2023-03-15T11:34:11.144Z,198.71
2023-03-15T11:38:15.575Z,197.54
2023-03-15T11:42:11.304Z,193.07
2023-03-15T11:46:11.124Z,189.69
2023-03-15T11:50:11.069Z,188.87
2023-03-15T11:54:10.942Z,188.76
2023-03-15T11:58:10.896Z,186.21
2023-03-15T12:02:11.271Z,185.75
2023-03-15T12:06:11.127Z,183.58
2023-03-15T12:10:11.244Z,183.53
2023-03-15T12:14:11.378Z,180.69
2023-03-15T12:18:11.543Z,183.59
2023-03-15T12:22:11.676Z,175.63
2023-03-15T12:26:11.835Z,179.69
2023-03-15T12:30:12.002Z,177.92
2023-03-15T12:34:12.166Z,173.12
2023-03-15T12:38:12.353Z,174.64
2023-03-15T12:42:12.457Z,166.65
2023-03-15T12:46:12.676Z,177.03
2023-03-15T12:50:12.831Z,177.81
2023-03-15T12:54:12.992Z,176.65
2023-03-15T12:58:13.238Z,174.31
2023-03-15T13:02:13.345Z,174.91
2023-03-15T13:06:13.559Z,170.44
2023-03-15T13:10:13.781Z,176.18
2023-03-15T13:14:13.899Z,167.74
2023-03-15T13:18:14.077Z,169.18
2023-03-15T13:22:14.254Z,168.48
2023-03-15T13:26:14.442Z,167.33
2023-03-15T13:30:14.646Z,166.71
2023-03-15T13:34:21.085Z,165.36
2023-03-15T13:38:14.776Z,161.14
2023-03-15T13:42:14.724Z,156.02
2023-03-15T13:46:14.832Z,172.09
2023-03-15T13:50:14.678Z,168.52
2023-03-15T13:54:14.643Z,161.36
2023-03-15T13:58:14.618Z,160.59
2023-03-15T14:02:25.152Z,160.90
2023-03-15T14:06:14.544Z,155.72
2023-03-15T14:10:14.508Z,154.44
2023-03-15T14:14:14.494Z,153.75
2023-03-15T14:18:14.424Z,154.12
2023-03-15T14:22:14.571Z,153.54
2023-03-15T14:26:14.784Z,154.43
2023-03-15T14:30:15.021Z,150.84
2023-03-15T14:34:15.185Z,152.81
2023-03-15T14:38:15.408Z,155.57
2023-03-15T14:42:15.558Z,147.76
2023-03-15T14:46:15.813Z,195.93
2023-03-15T14:50:15.858Z,203.65
2023-03-15T14:54:15.929Z,206.43
2023-03-15T14:58:15.926Z,175.64
2023-03-15T15:02:15.955Z,170.81
2023-03-15T15:06:16.690Z,172.25
2023-03-15T15:10:15.848Z,170.83
2023-03-15T15:14:15.780Z,166.26
2023-03-15T15:18:15.747Z,167.59
2023-03-15T15:22:15.717Z,163.06
2023-03-15T15:26:15.628Z,165.48
2023-03-15T15:30:16.510Z,160.42
2023-03-15T15:34:16.172Z,160.57
2023-03-15T15:38:16.218Z,165.86
2023-03-15T15:42:16.249Z,161.17
2023-03-15T15:46:16.185Z,158.89
2023-03-15T15:50:16.112Z,158.55
2023-03-15T15:54:16.716Z,160.37
2023-03-15T15:58:16.019Z,164.72
2023-03-15T16:02:16.082Z,168.96
2023-03-15T16:06:15.983Z,177.01
2023-03-15T16:10:15.950Z,172.36
2023-03-15T16:14:15.945Z,171.74
2023-03-15T16:18:15.865Z,173.94
2023-03-15T16:22:15.807Z,171.61
2023-03-15T16:26:15.804Z,172.92
2023-03-15T16:30:15.775Z,173.00
2023-03-15T16:34:15.893Z,171.71
2023-03-15T16:38:15.989Z,168.04
2023-03-15T16:42:16.159Z,167.71
2023-03-15T16:46:16.347Z,168.92
2023-03-15T16:50:16.392Z,163.62
2023-03-15T16:54:30.658Z,165.36
2023-03-15T16:58:17.484Z,161.41
2023-03-15T17:02:16.394Z,168.50
2023-03-15T17:06:16.350Z,169.42
2023-03-15T17:10:16.729Z,162.87
2023-03-15T17:14:16.649Z,164.43
2023-03-15T17:18:16.718Z,157.96
2023-03-15T17:22:16.796Z,164.06
2023-03-15T17:26:16.960Z,163.50
2023-03-15T17:30:17.079Z,158.11
2023-03-15T17:34:17.117Z,155.31
2023-03-15T17:38:17.177Z,159.76
2023-03-15T17:42:17.243Z,158.90
2023-03-15T17:46:17.356Z,157.22
2023-03-15T17:50:17.412Z,158.45
2023-03-15T17:54:17.463Z,159.97
2023-03-15T17:58:17.518Z,154.76
2023-03-15T18:02:17.641Z,154.69
2023-03-15T18:06:17.721Z,155.16
2023-03-15T18:10:17.710Z,153.54
2023-03-15T18:14:17.776Z,151.75
2023-03-15T18:18:17.908Z,149.65
2023-03-15T18:22:17.980Z,148.89
2023-03-15T18:26:18.067Z,149.09
2023-03-15T18:30:18.198Z,147.00
2023-03-15T18:34:18.233Z,152.46
2023-03-15T18:38:18.317Z,151.12
2023-03-15T18:42:18.387Z,155.03
2023-03-15T18:46:18.610Z,158.96
2023-03-15T18:50:18.573Z,157.99
2023-03-15T18:54:18.665Z,161.60
2023-03-15T18:58:18.792Z,165.52
2023-03-15T19:02:18.982Z,166.52
2023-03-15T19:06:19.123Z,164.50
2023-03-15T19:10:19.318Z,165.59
2023-03-15T19:14:19.513Z,166.26
2023-03-15T19:18:19.678Z,166.41
2023-03-15T19:22:19.880Z,167.84
2023-03-15T19:26:20.110Z,163.20
2023-03-15T19:30:20.266Z,165.21
2023-03-15T19:34:20.467Z,167.18
2023-03-15T19:38:20.630Z,162.59
2023-03-15T19:42:21.247Z,156.03
2023-03-15T19:46:20.980Z,158.73
2023-03-15T19:50:21.060Z,155.57
2023-03-15T19:54:21.221Z,153.62
2023-03-15T19:58:21.422Z,156.03
2023-03-15T20:02:21.516Z,151.42
2023-03-15T20:06:21.652Z,153.61
2023-03-15T20:10:22.083Z,150.95
2023-03-15T20:14:21.987Z,144.68
2023-03-15T20:18:22.076Z,146.51
2023-03-15T20:22:22.201Z,143.86
2023-03-15T20:26:22.421Z,145.11
2023-03-15T20:30:23.012Z,141.32
2023-03-15T20:34:22.591Z,141.63
2023-03-15T20:38:22.675Z,140.07
2023-03-15T20:42:22.793Z,143.60
2023-03-15T20:46:22.892Z,141.14
2023-03-15T20:50:23.375Z,140.67
2023-03-15T20:54:23.107Z,144.32
2023-03-15T20:58:23.161Z,144.38
2023-03-15T21:02:23.256Z,145.07
2023-03-15T21:06:23.361Z,141.97
2023-03-15T21:10:24.179Z,145.90
2023-03-15T21:14:23.621Z,140.77
2023-03-15T21:18:23.706Z,140.64
2023-03-15T21:22:23.793Z,142.40
2023-03-15T21:26:23.896Z,139.89
2023-03-15T21:30:24.261Z,132.27
2023-03-15T21:34:23.981Z,134.66
2023-03-15T21:38:24.094Z,134.50
2023-03-15T21:42:24.149Z,132.87
2023-03-15T21:46:24.275Z,132.89
2023-03-15T21:50:24.695Z,130.40
2023-03-15T21:54:24.808Z,135.94
2023-03-15T21:58:24.418Z,132.25
2023-03-15T22:02:24.443Z,128.29
2023-03-15T22:06:24.535Z,127.56
2023-03-15T22:10:24.892Z,128.69
2023-03-15T22:14:24.641Z,124.93
2023-03-15T22:18:24.663Z,128.17
2023-03-15T22:22:24.732Z,125.89
2023-03-15T22:26:24.816Z,124.05
2023-03-15T22:30:25.136Z,124.61
2023-03-15T22:34:25.495Z,122.34
2023-03-15T22:38:25.331Z,123.86
2023-03-15T22:42:25.444Z,123.62
2023-03-15T22:46:25.493Z,121.78
2023-03-15T22:50:25.992Z,121.77
2023-03-15T22:54:25.640Z,122.35
2023-03-15T22:58:25.684Z,122.63
2023-03-15T23:02:25.788Z,119.46
2023-03-15T23:06:25.836Z,119.52
2023-03-15T23:10:26.246Z,122.58
2023-03-15T23:14:26.006Z,116.02
2023-03-15T23:18:26.068Z,115.22
2023-03-15T23:22:26.211Z,114.04
2023-03-15T23:26:26.262Z,113.96
2023-03-15T23:30:27.074Z,117.14
2023-03-15T23:34:26.420Z,115.14
2023-03-15T23:38:26.474Z,119.21
2023-03-15T23:42:26.563Z,115.31
2023-03-15T23:46:26.704Z,112.51
2023-03-15T23:50:27.224Z,113.44
2023-03-15T23:54:26.847Z,110.54
2023-03-15T23:58:26.932Z,115.46
